Погода Таддертна 2 недели

Агадир, Марокко

25 июля-06 августа
  • 25июля
    Сегодня
    +24°
    +43°
    Небольшая облачность
    ВремяПогодаТемператураВлажностьДавлениеВетер, м/сВероятность осадков
    01:00Практически безоблачно+32°C38 %739 мм0.7 м/с2 %
    04:00Облачно с прояснениями+29°C22 %738 мм2.0 м/с2 %
    07:00Ясно и безоблачно+31°C23 %737 мм2.4 м/с2 %
    10:00Практически безоблачно+38°C15 %738 мм1.2 м/с2 %
    13:00Небольшая облачность+42°C13 %737 мм3.6 м/с2 %
    16:00Небольшая облачность+41°C14 %736 мм3.6 м/с2 %
    19:00Практически безоблачно+36°C26 %736 мм2.8 м/с2 %
    22:00Ясно и безоблачно+28°C42 %737 мм1.3 м/с2 %
  • 26июля
    Пятница
    +19°
    +39°
    Ясно и безоблачно
    ВремяПогодаТемператураВлажностьДавлениеВетер, м/сВероятность осадков
    01:00Ясно и безоблачно+28°C47 %738 мм0.2 м/с2 %
    04:00Ясно и безоблачно+25°C47 %736 мм0.6 м/с2 %
    07:00Ясно и безоблачно+27°C40 %736 мм1.6 м/с2 %
    10:00Ясно и безоблачно+32°C18 %736 мм0.8 м/с2 %
    13:00Ясно и безоблачно+38°C17 %736 мм3.8 м/с2 %
    16:00Практически безоблачно+38°C18 %735 мм5.9 м/с2 %
    19:00Ясно и безоблачно+37°C21 %735 мм5.5 м/с2 %
    22:00Ясно и безоблачно+25°C60 %737 мм2.5 м/с2 %
  • 27июля
    Суббота
    +19°
    +34°
    Ясно и безоблачно
    ВремяПогодаТемператураВлажностьДавлениеВетер, м/сВероятность осадков
    01:00Ясно и безоблачно+24°C70 %737 мм1.0 м/с2 %
    04:00Ясно и безоблачно+20°C77 %736 мм0.4 м/с2 %
    07:00Ясно и безоблачно+21°C84 %737 мм1.0 м/с2 %
    10:00Ясно и безоблачно+22°C57 %737 мм1.3 м/с2 %
    13:00Ясно и безоблачно+33°C31 %737 мм3.6 м/с2 %
    16:00Ясно и безоблачно+33°C26 %735 мм6.0 м/с2 %
    19:00Ясно и безоблачно+32°C38 %736 мм5.2 м/с2 %
    22:00Ясно и безоблачно+24°C69 %738 мм3.2 м/с2 %
  • 28июля
    Воскресенье
    +19°
    +33°
    Ясно и безоблачно
    ВремяПогодаТемператураВлажностьДавлениеВетер, м/сВероятность осадков
    01:00Ясно и безоблачно+23°C80 %739 мм2.1 м/с2 %
    04:00Практически безоблачно+20°C90 %737 мм1.1 м/с2 %
    07:00Облачно с прояснениями+20°C98 %738 мм0.6 м/с2 %
    10:00Ясно и безоблачно+22°C70 %738 мм1.7 м/с2 %
    13:00Ясно и безоблачно+33°C35 %737 мм4.2 м/с2 %
    16:00Ясно и безоблачно+32°C31 %736 мм5.5 м/с2 %
    19:00Ясно и безоблачно+32°C37 %737 мм6.0 м/с2 %
    22:00Ясно и безоблачно+24°C68 %739 мм3.0 м/с2 %
Мы используем cookies
Соглашаюсь